Etusivu
METAR-TAF:

METAR-TAF

Lentoasemat :

Svolvær, Norja

Svolværin lentoasema

Leveyspiiri: 68-15N, Pituuspiiri: 014-40E, korkeus merenpinnasta: 0 m

Tämänhetkinen sää

Tämä raportti tehtiin 1 tunti ja 5 minuuttia sitten, kello 03.50 UTC
Tuuli 13 kn idästä
Lämpötila 8°C
Kosteus 57%
Ilmanpaine 1026 hPa
Näkyvyys 10 km tai enemmän
ei pilviä alle 1500 m:ssä eikä cumulonimbus-pilviä

METAR: ENSH 210350Z 10013KT CAVOK 08/00 Q1026 RMK WIND 150FT 07013KT

Aika: 06:55 (04:55 UTC)

Sääennuste

Tämä raportti tehtiin 2 tuntia ja 55 minuuttia sitten, kello 02.00 UTC
Ennuste voimassa 21. päivästä klo 03 UTC - 21. päivään klo 12 UTC
Tuuli 12 kn kaakosta
Näkyvyys 10 km tai enemmän
ei pilviä alle 1500 m:ssä eikä cumulonimbus-pilviä

TAF: ENSH 210200Z 2103/2112 14012KT CAVOK

Säähavainnot ja -ennusteet yli 4000 lentoasemalta (METAR- ja TAF-raportit).

Käytössä olevat sääasemat on merkitty karttaan keltaisilla ja punaisilla pisteillä.

Aseta hiiri pisteen päälle nähdäksesi sääaseman nimen.

Klikkaa sitten nähdäksesi säähavainnot ja -ennusteet.

Kartan vaihtaminen: klikkaa mustalla rastilla varustettuja vihreitä pisteitä, niin voit zoomata sisään; viivalla varustettua vihreää pistettä, niin voit zoomata ulos tai vihreitä nuolia, niin pääset viereisille kartoille.


METAR-TAF: